sensor_id;sensor_type;location;lat;lon;timestamp;pressure;altitude;pressure_sealevel;temperature;humidity
21566;BME280;10943;48.738;9.320;2022-10-16T00:01:43;98696.66;;;19.37;67.72
21566;BME280;10943;48.738;9.320;2022-10-16T00:04:10;98691.75;;;19.48;67.39
21566;BME280;10943;48.738;9.320;2022-10-16T00:06:38;98704.59;;;19.35;67.99
21566;BME280;10943;48.738;9.320;2022-10-16T00:09:06;98694.56;;;19.28;68.09
21566;BME280;10943;48.738;9.320;2022-10-16T00:11:37;98692.72;;;19.38;67.94
21566;BME280;10943;48.738;9.320;2022-10-16T00:14:12;98700.41;;;19.32;67.53
21566;BME280;10943;48.738;9.320;2022-10-16T00:16:42;98704.59;;;19.35;67.08
21566;BME280;10943;48.738;9.320;2022-10-16T00:19:11;98695.09;;;19.31;66.94
21566;BME280;10943;48.738;9.320;2022-10-16T00:21:42;98700.78;;;19.25;67.25
21566;BME280;10943;48.738;9.320;2022-10-16T00:24:28;98697.75;;;19.22;66.47
21566;BME280;10943;48.738;9.320;2022-10-16T00:26:55;98704.50;;;19.21;66.05
21566;BME280;10943;48.738;9.320;2022-10-16T00:29:23;98702.13;;;19.09;66.70
21566;BME280;10943;48.738;9.320;2022-10-16T00:31:50;98699.38;;;19.04;68.45
21566;BME280;10943;48.738;9.320;2022-10-16T00:34:18;98705.00;;;19.04;68.52
21566;BME280;10943;48.738;9.320;2022-10-16T00:36:45;98708.81;;;18.89;69.17
21566;BME280;10943;48.738;9.320;2022-10-16T00:39:12;98706.47;;;18.72;69.76
21566;BME280;10943;48.738;9.320;2022-10-16T00:41:39;98706.28;;;18.68;69.96
21566;BME280;10943;48.738;9.320;2022-10-16T00:47:34;98692.56;;;18.86;69.29
21566;BME280;10943;48.738;9.320;2022-10-16T00:50:27;98695.16;;;18.58;70.35
21566;BME280;10943;48.738;9.320;2022-10-16T00:52:58;98695.06;;;18.39;70.95
21566;BME280;10943;48.738;9.320;2022-10-16T00:55:28;98702.94;;;18.37;71.19
21566;BME280;10943;48.738;9.320;2022-10-16T00:57:57;98695.06;;;18.39;71.30
21566;BME280;10943;48.738;9.320;2022-10-16T01:00:26;98688.13;;;18.31;71.50
21566;BME280;10943;48.738;9.320;2022-10-16T01:03:00;98691.00;;;18.26;71.70
21566;BME280;10943;48.738;9.320;2022-10-16T01:09:47;98700.06;;;18.18;71.63
21566;BME280;10943;48.738;9.320;2022-10-16T01:12:57;98715.31;;;18.06;72.18
21566;BME280;10943;48.738;9.320;2022-10-16T01:15:42;98708.38;;;17.98;72.55
21566;BME280;10943;48.738;9.320;2022-10-16T01:18:37;98718.66;;;17.69;73.77
21566;BME280;10943;48.738;9.320;2022-10-16T01:21:22;98717.84;;;18.03;73.14
21566;BME280;10943;48.738;9.320;2022-10-16T01:27:15;98724.41;;;18.22;70.95
21566;BME280;10943;48.738;9.320;2022-10-16T01:35:47;98712.28;;;18.56;70.24
21566;BME280;10943;48.738;9.320;2022-10-16T01:38:28;98714.91;;;18.72;69.44
21566;BME280;10943;48.738;9.320;2022-10-16T01:41:24;98716.44;;;18.35;70.41
21566;BME280;10943;48.738;9.320;2022-10-16T01:44:05;98735.34;;;18.24;70.54
21566;BME280;10943;48.738;9.320;2022-10-16T01:46:50;98719.41;;;18.19;70.76
21566;BME280;10943;48.738;9.320;2022-10-16T01:49:24;98707.50;;;18.57;69.78
21566;BME280;10943;48.738;9.320;2022-10-16T01:52:02;98696.34;;;18.22;71.40
21566;BME280;10943;48.738;9.320;2022-10-16T01:54:35;98699.72;;;18.24;71.19
21566;BME280;10943;48.738;9.320;2022-10-16T01:57:07;98702.56;;;18.19;71.27
21566;BME280;10943;48.738;9.320;2022-10-16T01:59:44;98701.50;;;18.15;71.80
21566;BME280;10943;48.738;9.320;2022-10-16T02:02:17;98706.59;;;18.08;72.16
21566;BME280;10943;48.738;9.320;2022-10-16T02:04:53;98705.06;;;18.21;71.68
21566;BME280;10943;48.738;9.320;2022-10-16T02:07:24;98694.44;;;18.18;71.91
21566;BME280;10943;48.738;9.320;2022-10-16T02:09:52;98695.84;;;18.20;71.69
21566;BME280;10943;48.738;9.320;2022-10-16T02:12:31;98689.50;;;18.04;72.53
21566;BME280;10943;48.738;9.320;2022-10-16T02:15:02;98700.78;;;17.99;72.43
21566;BME280;10943;48.738;9.320;2022-10-16T02:17:29;98710.03;;;18.00;72.46
21566;BME280;10943;48.738;9.320;2022-10-16T02:19:58;98703.88;;;17.92;72.88
21566;BME280;10943;48.738;9.320;2022-10-16T02:22:33;98701.72;;;17.84;73.36
21566;BME280;10943;48.738;9.320;2022-10-16T02:25:15;98706.25;;;17.80;73.50
21566;BME280;10943;48.738;9.320;2022-10-16T02:28:16;98717.72;;;18.18;72.13
21566;BME280;10943;48.738;9.320;2022-10-16T02:31:02;98715.94;;;18.27;71.61
21566;BME280;10943;48.738;9.320;2022-10-16T02:33:32;98717.69;;;18.23;71.73
21566;BME280;10943;48.738;9.320;2022-10-16T02:36:01;98711.31;;;18.42;70.84
21566;BME280;10943;48.738;9.320;2022-10-16T02:38:30;98714.09;;;18.71;69.27
21566;BME280;10943;48.738;9.320;2022-10-16T02:40:58;98700.13;;;18.90;68.56
21566;BME280;10943;48.738;9.320;2022-10-16T02:43:26;98695.66;;;18.89;68.70
21566;BME280;10943;48.738;9.320;2022-10-16T02:45:53;98684.97;;;18.38;71.27
21566;BME280;10943;48.738;9.320;2022-10-16T02:48:21;98684.56;;;18.25;71.61
21566;BME280;10943;48.738;9.320;2022-10-16T02:50:48;98689.56;;;18.28;71.99
21566;BME280;10943;48.738;9.320;2022-10-16T02:53:16;98699.50;;;18.45;71.63
21566;BME280;10943;48.738;9.320;2022-10-16T02:55:43;98698.28;;;18.51;71.28
21566;BME280;10943;48.738;9.320;2022-10-16T02:58:11;98706.31;;;18.39;71.34
21566;BME280;10943;48.738;9.320;2022-10-16T03:00:39;98703.25;;;18.35;71.80
21566;BME280;10943;48.738;9.320;2022-10-16T03:03:06;98716.66;;;18.14;72.40
21566;BME280;10943;48.738;9.320;2022-10-16T03:05:33;98706.44;;;18.23;72.26
21566;BME280;10943;48.738;9.320;2022-10-16T03:08:00;98719.31;;;18.29;71.86
21566;BME280;10943;48.738;9.320;2022-10-16T03:10:28;98715.94;;;18.27;71.73
21566;BME280;10943;48.738;9.320;2022-10-16T03:12:55;98713.44;;;18.26;71.74
21566;BME280;10943;48.738;9.320;2022-10-16T03:15:24;98719.63;;;17.88;72.95
21566;BME280;10943;48.738;9.320;2022-10-16T03:17:58;98711.81;;;17.85;73.36
21566;BME280;10943;48.738;9.320;2022-10-16T03:20:26;98713.03;;;17.74;73.44
21566;BME280;10943;48.738;9.320;2022-10-16T03:22:54;98715.19;;;17.82;73.46
21566;BME280;10943;48.738;9.320;2022-10-16T03:25:21;98715.34;;;18.01;72.74
21566;BME280;10943;48.738;9.320;2022-10-16T03:27:49;98710.47;;;17.77;73.41
21566;BME280;10943;48.738;9.320;2022-10-16T03:30:16;98713.81;;;17.79;73.38
21566;BME280;10943;48.738;9.320;2022-10-16T03:32:44;98712.13;;;17.78;73.43
21566;BME280;10943;48.738;9.320;2022-10-16T03:35:12;98715.25;;;17.72;73.74
21566;BME280;10943;48.738;9.320;2022-10-16T03:37:39;98719.16;;;17.76;73.63
21566;BME280;10943;48.738;9.320;2022-10-16T03:40:07;98710.09;;;17.89;73.18
21566;BME280;10943;48.738;9.320;2022-10-16T03:42:35;98707.81;;;17.91;72.93
21566;BME280;10943;48.738;9.320;2022-10-16T03:45:03;98713.31;;;17.72;73.44
21566;BME280;10943;48.738;9.320;2022-10-16T03:47:31;98720.41;;;17.99;72.33
21566;BME280;10943;48.738;9.320;2022-10-16T03:50:00;98724.50;;;18.12;71.61
21566;BME280;10943;48.738;9.320;2022-10-16T03:52:28;98724.06;;;18.00;72.01
21566;BME280;10943;48.738;9.320;2022-10-16T03:54:55;98721.19;;;18.10;71.54
21566;BME280;10943;48.738;9.320;2022-10-16T03:57:22;98717.56;;;18.04;71.66
21566;BME280;10943;48.738;9.320;2022-10-16T03:59:50;98721.00;;;17.91;72.31
21566;BME280;10943;48.738;9.320;2022-10-16T04:02:17;98727.44;;;17.91;71.99
21566;BME280;10943;48.738;9.320;2022-10-16T04:04:44;98734.91;;;17.72;72.59
21566;BME280;10943;48.738;9.320;2022-10-16T04:07:12;98732.22;;;17.51;73.27
21566;BME280;10943;48.738;9.320;2022-10-16T04:09:39;98724.69;;;17.52;73.59
21566;BME280;10943;48.738;9.320;2022-10-16T04:12:06;98724.28;;;17.69;73.13
21566;BME280;10943;48.738;9.320;2022-10-16T04:14:34;98731.75;;;17.78;72.50
21566;BME280;10943;48.738;9.320;2022-10-16T04:17:01;98728.47;;;18.06;71.17
21566;BME280;10943;48.738;9.320;2022-10-16T04:19:28;98730.50;;;18.00;71.27
21566;BME280;10943;48.738;9.320;2022-10-16T04:21:56;98731.75;;;17.78;72.08
21566;BME280;10943;48.738;9.320;2022-10-16T04:24:23;98736.00;;;17.71;72.50
21566;BME280;10943;48.738;9.320;2022-10-16T04:26:51;98734.91;;;17.72;72.37
21566;BME280;10943;48.738;9.320;2022-10-16T04:29:18;98738.22;;;17.79;72.28
21566;BME280;10943;48.738;9.320;2022-10-16T04:31:46;98733.06;;;17.96;71.72
21566;BME280;10943;48.738;9.320;2022-10-16T04:34:13;98744.78;;;18.04;71.27
21566;BME280;10943;48.738;9.320;2022-10-16T04:36:40;98725.25;;;17.88;71.81
21566;BME280;10943;48.738;9.320;2022-10-16T04:39:08;98728.13;;;17.78;71.89
21566;BME280;10943;48.738;9.320;2022-10-16T04:41:35;98726.66;;;17.86;71.36
21566;BME280;10943;48.738;9.320;2022-10-16T04:44:04;98735.34;;;17.89;71.19
21566;BME280;10943;48.738;9.320;2022-10-16T04:46:31;98736.81;;;17.81;71.18
21566;BME280;10943;48.738;9.320;2022-10-16T04:49:05;98742.84;;;17.99;71.15
21566;BME280;10943;48.738;9.320;2022-10-16T04:51:32;98740.00;;;18.04;71.12
21566;BME280;10943;48.738;9.320;2022-10-16T04:54:00;98743.94;;;18.03;71.42
21566;BME280;10943;48.738;9.320;2022-10-16T04:56:27;98748.81;;;17.87;71.78
21566;BME280;10943;48.738;9.320;2022-10-16T04:58:55;98752.81;;;17.76;72.45
21566;BME280;10943;48.738;9.320;2022-10-16T05:01:22;98751.69;;;17.77;72.69
21566;BME280;10943;48.738;9.320;2022-10-16T05:03:50;98752.25;;;17.79;72.38
21566;BME280;10943;48.738;9.320;2022-10-16T05:06:18;98755.31;;;17.83;72.37
21566;BME280;10943;48.738;9.320;2022-10-16T05:08:45;98761.09;;;17.91;72.15
21566;BME280;10943;48.738;9.320;2022-10-16T05:11:12;98757.78;;;17.89;72.06
21566;BME280;10943;48.738;9.320;2022-10-16T05:13:39;98765.88;;;17.91;71.40
21566;BME280;10943;48.738;9.320;2022-10-16T05:16:07;98769.38;;;17.77;70.32
21566;BME280;10943;48.738;9.320;2022-10-16T05:18:34;98765.66;;;17.82;71.03
21566;BME280;10943;48.738;9.320;2022-10-16T05:21:02;98777.75;;;17.83;71.13
21566;BME280;10943;48.738;9.320;2022-10-16T05:23:29;98768.22;;;17.78;71.62
21566;BME280;10943;48.738;9.320;2022-10-16T05:25:59;98764.63;;;17.73;72.26
21566;BME280;10943;48.738;9.320;2022-10-16T05:28:29;98769.03;;;17.84;71.80
21566;BME280;10943;48.738;9.320;2022-10-16T05:30:58;98765.63;;;17.87;71.50
21566;BME280;10943;48.738;9.320;2022-10-16T05:33:26;98755.63;;;17.71;71.85
21566;BME280;10943;48.738;9.320;2022-10-16T05:35:53;98757.34;;;17.67;72.23
21566;BME280;10943;48.738;9.320;2022-10-16T05:38:20;98757.66;;;17.65;71.93
21566;BME280;10943;48.738;9.320;2022-10-16T05:40:52;98765.47;;;17.68;71.33
21566;BME280;10943;48.738;9.320;2022-10-16T05:43:20;98766.88;;;17.65;72.04
21566;BME280;10943;48.738;9.320;2022-10-16T05:46:03;98770.41;;;17.42;73.23
21566;BME280;10943;48.738;9.320;2022-10-16T05:48:33;98770.94;;;17.49;72.77
21566;BME280;10943;48.738;9.320;2022-10-16T05:51:04;98777.66;;;17.48;72.55
21566;BME280;10943;48.738;9.320;2022-10-16T05:53:36;98777.72;;;17.38;72.55
21566;BME280;10943;48.738;9.320;2022-10-16T05:56:07;98788.00;;;17.47;72.54
21566;BME280;10943;48.738;9.320;2022-10-16T05:58:38;98780.75;;;17.46;72.46
21566;BME280;10943;48.738;9.320;2022-10-16T06:01:13;98783.00;;;17.44;73.15
21566;BME280;10943;48.738;9.320;2022-10-16T06:03:43;98785.19;;;18.03;71.13
21566;BME280;10943;48.738;9.320;2022-10-16T06:06:18;98788.03;;;17.97;71.01
21566;BME280;10943;48.738;9.320;2022-10-16T06:08:48;98797.09;;;18.19;70.45
21566;BME280;10943;48.738;9.320;2022-10-16T06:11:21;98805.44;;;18.29;70.74
21566;BME280;10943;48.738;9.320;2022-10-16T06:13:56;98807.50;;;18.18;70.99
21566;BME280;10943;48.738;9.320;2022-10-16T06:16:28;98801.78;;;18.63;69.05
21566;BME280;10943;48.738;9.320;2022-10-16T06:18:57;98805.31;;;18.44;69.01
21566;BME280;10943;48.738;9.320;2022-10-16T06:21:28;98808.81;;;18.31;70.54
21566;BME280;10943;48.738;9.320;2022-10-16T06:23:57;98804.81;;;18.67;68.96
21566;BME280;10943;48.738;9.320;2022-10-16T06:26:29;98810.44;;;18.96;68.02
21566;BME280;10943;48.738;9.320;2022-10-16T06:28:59;98823.03;;;19.47;66.17
21566;BME280;10943;48.738;9.320;2022-10-16T06:31:28;98826.78;;;19.42;66.35
21566;BME280;10943;48.738;9.320;2022-10-16T06:33:58;98821.97;;;19.43;65.69
21566;BME280;10943;48.738;9.320;2022-10-16T06:36:26;98828.72;;;19.42;64.99
21566;BME280;10943;48.738;9.320;2022-10-16T06:38:54;98824.16;;;19.27;66.18
21566;BME280;10943;48.738;9.320;2022-10-16T06:41:22;98823.84;;;19.28;66.74
21566;BME280;10943;48.738;9.320;2022-10-16T06:43:50;98819.72;;;19.45;65.67
21566;BME280;10943;48.738;9.320;2022-10-16T06:46:23;98817.00;;;19.78;65.00
21566;BME280;10943;48.738;9.320;2022-10-16T06:48:52;98828.69;;;19.90;64.98
21566;BME280;10943;48.738;9.320;2022-10-16T06:51:23;98838.78;;;20.10;63.56
21566;BME280;10943;48.738;9.320;2022-10-16T06:53:55;98842.72;;;20.48;62.18
21566;BME280;10943;48.738;9.320;2022-10-16T06:56:32;98840.69;;;20.15;63.69
21566;BME280;10943;48.738;9.320;2022-10-16T06:59:01;98846.72;;;20.08;64.02
21566;BME280;10943;48.738;9.320;2022-10-16T07:01:32;98854.06;;;20.23;63.23
21566;BME280;10943;48.738;9.320;2022-10-16T07:04:02;98857.28;;;20.36;63.08
21566;BME280;10943;48.738;9.320;2022-10-16T07:06:33;98853.97;;;20.48;62.51
21566;BME280;10943;48.738;9.320;2022-10-16T07:09:07;98869.34;;;20.36;63.22
21566;BME280;10943;48.738;9.320;2022-10-16T07:11:40;98872.47;;;20.35;62.70
21566;BME280;10943;48.738;9.320;2022-10-16T07:14:20;98866.06;;;20.48;62.52
21566;BME280;10943;48.738;9.320;2022-10-16T07:16:48;98874.56;;;20.81;61.18
21566;BME280;10943;48.738;9.320;2022-10-16T07:19:15;98873.69;;;21.14;59.88
21566;BME280;10943;48.738;9.320;2022-10-16T07:21:48;98874.63;;;21.09;60.17
21566;BME280;10943;48.738;9.320;2022-10-16T07:24:27;98883.06;;;21.09;60.40
21566;BME280;10943;48.738;9.320;2022-10-16T07:26:54;98897.75;;;20.92;61.38
21566;BME280;10943;48.738;9.320;2022-10-16T07:29:21;98898.19;;;20.99;61.29
21566;BME280;10943;48.738;9.320;2022-10-16T07:31:49;98897.06;;;21.14;61.00
21566;BME280;10943;48.738;9.320;2022-10-16T07:34:19;98895.97;;;21.29;60.36
21566;BME280;10943;48.738;9.320;2022-10-16T07:36:50;98908.88;;;21.30;60.17
21566;BME280;10943;48.738;9.320;2022-10-16T07:39:17;98912.53;;;21.17;59.94
21566;BME280;10943;48.738;9.320;2022-10-16T07:41:45;98912.00;;;21.15;60.21
21566;BME280;10943;48.738;9.320;2022-10-16T07:44:16;98919.72;;;21.09;60.61
21566;BME280;10943;48.738;9.320;2022-10-16T07:46:46;98922.69;;;21.32;59.29
21566;BME280;10943;48.738;9.320;2022-10-16T07:49:17;98917.16;;;21.26;59.74
21566;BME280;10943;48.738;9.320;2022-10-16T07:51:44;98922.09;;;21.63;58.53
21566;BME280;10943;48.738;9.320;2022-10-16T07:54:12;98919.19;;;21.82;58.04
21566;BME280;10943;48.738;9.320;2022-10-16T07:56:39;98922.44;;;21.75;57.92
21566;BME280;10943;48.738;9.320;2022-10-16T07:59:10;98924.53;;;21.22;59.86
21566;BME280;10943;48.738;9.320;2022-10-16T08:01:37;98921.81;;;21.17;60.08
21566;BME280;10943;48.738;9.320;2022-10-16T08:04:05;98932.09;;;21.41;60.41
21566;BME280;10943;48.738;9.320;2022-10-16T08:06:37;98933.81;;;21.84;58.96
21566;BME280;10943;48.738;9.320;2022-10-16T08:09:06;98936.00;;;22.15;57.62
21566;BME280;10943;48.738;9.320;2022-10-16T08:11:35;98930.88;;;22.53;56.39
21566;BME280;10943;48.738;9.320;2022-10-16T08:14:02;98934.41;;;22.08;57.76
21566;BME280;10943;48.738;9.320;2022-10-16T08:16:29;98937.97;;;22.14;57.77
21566;BME280;10943;48.738;9.320;2022-10-16T08:18:57;98936.28;;;22.13;57.07
21566;BME280;10943;48.738;9.320;2022-10-16T08:21:24;98936.91;;;22.10;57.57
21566;BME280;10943;48.738;9.320;2022-10-16T08:23:53;98941.72;;;22.37;56.71
21566;BME280;10943;48.738;9.320;2022-10-16T08:26:26;98945.38;;;22.74;56.47
21566;BME280;10943;48.738;9.320;2022-10-16T08:28:55;98938.09;;;23.05;55.39
21566;BME280;10943;48.738;9.320;2022-10-16T08:31:24;98935.22;;;23.50;54.58
21566;BME280;10943;48.738;9.320;2022-10-16T08:33:51;98948.28;;;24.09;53.52
21566;BME280;10943;48.738;9.320;2022-10-16T08:36:22;98952.84;;;25.42;50.73
21566;BME280;10943;48.738;9.320;2022-10-16T08:38:53;98949.41;;;27.19;46.18
21566;BME280;10943;48.738;9.320;2022-10-16T08:45:12;98960.59;;;27.70;43.60
21566;BME280;10943;48.738;9.320;2022-10-16T08:47:49;98964.28;;;29.39;41.06
21566;BME280;10943;48.738;9.320;2022-10-16T08:50:31;98980.50;;;28.94;40.72
21566;BME280;10943;48.738;9.320;2022-10-16T08:53:00;98967.88;;;28.05;42.32
21566;BME280;10943;48.738;9.320;2022-10-16T08:55:38;98975.53;;;27.67;43.00
21566;BME280;10943;48.738;9.320;2022-10-16T08:58:21;98976.31;;;27.22;45.13
21566;BME280;10943;48.738;9.320;2022-10-16T09:00:58;98969.78;;;26.88;45.04
21566;BME280;10943;48.738;9.320;2022-10-16T09:13:13;98992.72;;;25.93;47.55
21566;BME280;10943;48.738;9.320;2022-10-16T09:16:20;98984.38;;;27.41;44.14
21566;BME280;10943;48.738;9.320;2022-10-16T09:24:28;98989.84;;;28.16;41.48
21566;BME280;10943;48.738;9.320;2022-10-16T09:27:00;98984.50;;;28.52;40.28
21566;BME280;10943;48.738;9.320;2022-10-16T09:29:38;98994.13;;;28.35;40.01
21566;BME280;10943;48.738;9.320;2022-10-16T09:32:15;98992.47;;;28.71;40.41
21566;BME280;10943;48.738;9.320;2022-10-16T09:34:52;98999.84;;;29.41;38.53
21566;BME280;10943;48.738;9.320;2022-10-16T09:37:40;99009.22;;;29.70;37.58
21566;BME280;10943;48.738;9.320;2022-10-16T09:40:37;99003.47;;;29.99;35.95
21566;BME280;10943;48.738;9.320;2022-10-16T09:43:36;99010.53;;;29.89;37.25
21566;BME280;10943;48.738;9.320;2022-10-16T09:49:02;99003.25;;;31.69;33.08
21566;BME280;10943;48.738;9.320;2022-10-16T09:51:36;99003.97;;;31.86;33.58
21566;BME280;10943;48.738;9.320;2022-10-16T09:54:21;99009.81;;;32.39;32.24
21566;BME280;10943;48.738;9.320;2022-10-16T09:56:49;99002.16;;;31.35;34.00
21566;BME280;10943;48.738;9.320;2022-10-16T09:59:22;99001.66;;;31.52;33.64
21566;BME280;10943;48.738;9.320;2022-10-16T10:02:01;99004.72;;;32.29;33.34
21566;BME280;10943;48.738;9.320;2022-10-16T10:04:51;99012.50;;;32.52;31.58
21566;BME280;10943;48.738;9.320;2022-10-16T10:07:28;99000.19;;;33.77;31.16
21566;BME280;10943;48.738;9.320;2022-10-16T10:10:05;99012.91;;;37.59;25.37
21566;BME280;10943;48.738;9.320;2022-10-16T10:12:41;99017.47;;;37.49;24.71
21566;BME280;10943;48.738;9.320;2022-10-16T10:15:16;99017.91;;;38.68;24.73
21566;BME280;10943;48.738;9.320;2022-10-16T10:17:55;99021.94;;;40.16;21.57
21566;BME280;10943;48.738;9.320;2022-10-16T10:20:33;99016.19;;;40.36;21.46
21566;BME280;10943;48.738;9.320;2022-10-16T10:23:28;99008.69;;;37.68;23.95
21566;BME280;10943;48.738;9.320;2022-10-16T10:26:15;98999.69;;;35.24;29.27
21566;BME280;10943;48.738;9.320;2022-10-16T10:36:34;99008.16;;;36.95;25.32
21566;BME280;10943;48.738;9.320;2022-10-16T10:39:27;99008.59;;;36.72;26.05
21566;BME280;10943;48.738;9.320;2022-10-16T10:45:45;99012.34;;;37.86;23.91
21566;BME280;10943;48.738;9.320;2022-10-16T10:59:04;99022.84;;;38.71;22.68
21566;BME280;10943;48.738;9.320;2022-10-16T11:10:05;99010.13;;;40.74;19.90
21566;BME280;10943;48.738;9.320;2022-10-16T11:17:28;99003.91;;;41.76;19.49
21566;BME280;10943;48.738;9.320;2022-10-16T11:24:45;99005.19;;;42.61;18.48
21566;BME280;10943;48.738;9.320;2022-10-16T11:27:55;99001.78;;;43.25;18.27
21566;BME280;10943;48.738;9.320;2022-10-16T11:30:47;99002.03;;;43.31;18.07
21566;BME280;10943;48.738;9.320;2022-10-16T11:42:41;98986.78;;;39.79;21.48
21566;BME280;10943;48.738;9.320;2022-10-16T11:56:54;98977.66;;;36.76;24.18
21566;BME280;10943;48.738;9.320;2022-10-16T12:00:53;98966.94;;;36.80;24.26
21566;BME280;10943;48.738;9.320;2022-10-16T12:05:02;98965.28;;;38.76;22.44
21566;BME280;10943;48.738;9.320;2022-10-16T12:08:49;98968.06;;;40.11;20.88
21566;BME280;10943;48.738;9.320;2022-10-16T12:13:01;98966.03;;;40.79;19.99
21566;BME280;10943;48.738;9.320;2022-10-16T12:16:50;98958.72;;;41.71;18.37
21566;BME280;10943;48.738;9.320;2022-10-16T12:23:19;98973.06;;;42.48;18.43
21566;BME280;10943;48.738;9.320;2022-10-16T12:26:44;98957.56;;;41.29;18.77
21566;BME280;10943;48.738;9.320;2022-10-16T12:30:02;98958.97;;;41.20;18.77
21566;BME280;10943;48.738;9.320;2022-10-16T12:33:56;98964.41;;;41.59;18.28
21566;BME280;10943;48.738;9.320;2022-10-16T12:47:18;98963.59;;;34.70;25.64
21566;BME280;10943;48.738;9.320;2022-10-16T12:50:02;98959.00;;;34.07;26.37
21566;BME280;10943;48.738;9.320;2022-10-16T12:52:41;98962.06;;;34.28;25.72
21566;BME280;10943;48.738;9.320;2022-10-16T13:19:15;98965.31;;;30.42;32.55
21566;BME280;10943;48.738;9.320;2022-10-16T13:25:18;98968.75;;;31.42;30.81
21566;BME280;10943;48.738;9.320;2022-10-16T13:28:21;98958.81;;;30.97;31.31
21566;BME280;10943;48.738;9.320;2022-10-16T13:31:13;98960.25;;;31.07;31.10
21566;BME280;10943;48.738;9.320;2022-10-16T13:34:19;98959.50;;;31.30;30.74
21566;BME280;10943;48.738;9.320;2022-10-16T13:37:18;98966.16;;;31.57;29.73
21566;BME280;10943;48.738;9.320;2022-10-16T13:41:02;98958.44;;;31.18;30.58
21566;BME280;10943;48.738;9.320;2022-10-16T13:44:12;98962.06;;;31.35;29.99
21566;BME280;10943;48.738;9.320;2022-10-16T13:47:24;98964.53;;;31.36;30.58
21566;BME280;10943;48.738;9.320;2022-10-16T13:50:16;98957.38;;;31.26;31.52
21566;BME280;10943;48.738;9.320;2022-10-16T13:52:46;98954.97;;;31.09;31.33
21566;BME280;10943;48.738;9.320;2022-10-16T13:55:18;98964.75;;;30.88;31.68
21566;BME280;10943;48.738;9.320;2022-10-16T13:58:13;98961.41;;;30.86;31.98
21566;BME280;10943;48.738;9.320;2022-10-16T14:01:05;98960.44;;;30.78;32.51
21566;BME280;10943;48.738;9.320;2022-10-16T14:03:48;98945.09;;;30.87;31.71
21566;BME280;10943;48.738;9.320;2022-10-16T14:10:29;98953.19;;;30.65;30.84
21566;BME280;10943;48.738;9.320;2022-10-16T14:14:19;98962.78;;;30.05;31.64
21566;BME280;10943;48.738;9.320;2022-10-16T14:17:04;98963.78;;;29.81;32.57
21566;BME280;10943;48.738;9.320;2022-10-16T14:20:12;98949.97;;;29.99;31.70
21566;BME280;10943;48.738;9.320;2022-10-16T14:31:28;98957.88;;;30.06;34.15
21566;BME280;10943;48.738;9.320;2022-10-16T14:43:39;98964.53;;;30.26;34.61
21566;BME280;10943;48.738;9.320;2022-10-16T14:46:31;98963.66;;;30.25;34.85
21566;BME280;10943;48.738;9.320;2022-10-16T14:49:41;98960.38;;;30.23;35.15
21566;BME280;10943;48.738;9.320;2022-10-16T14:52:45;98957.50;;;30.07;35.32
21566;BME280;10943;48.738;9.320;2022-10-16T14:55:38;98957.50;;;30.07;35.14
21566;BME280;10943;48.738;9.320;2022-10-16T15:02:53;98970.56;;;30.05;37.04
21566;BME280;10943;48.738;9.320;2022-10-16T15:05:39;98971.16;;;29.98;35.55
21566;BME280;10943;48.738;9.320;2022-10-16T15:08:30;98977.91;;;29.90;35.98
21566;BME280;10943;48.738;9.320;2022-10-16T15:11:17;98972.25;;;29.77;36.19
21566;BME280;10943;48.738;9.320;2022-10-16T15:13:47;98967.97;;;29.55;36.20
21566;BME280;10943;48.738;9.320;2022-10-16T15:16:16;98966.94;;;29.47;36.94
21566;BME280;10943;48.738;9.320;2022-10-16T15:18:47;98970.34;;;29.37;37.10
21566;BME280;10943;48.738;9.320;2022-10-16T15:21:35;98970.91;;;29.14;38.68
21566;BME280;10943;48.738;9.320;2022-10-16T15:24:11;98968.56;;;29.04;39.39
21566;BME280;10943;48.738;9.320;2022-10-16T15:26:49;98970.09;;;28.73;39.39
21566;BME280;10943;48.738;9.320;2022-10-16T15:29:17;98970.56;;;28.63;40.08
21566;BME280;10943;48.738;9.320;2022-10-16T15:31:48;98973.56;;;28.67;39.67
21566;BME280;10943;48.738;9.320;2022-10-16T15:34:17;98972.56;;;28.75;38.86
21566;BME280;10943;48.738;9.320;2022-10-16T15:37:03;98975.81;;;28.61;39.60
21566;BME280;10943;48.738;9.320;2022-10-16T15:39:31;98970.38;;;28.31;41.13
21566;BME280;10943;48.738;9.320;2022-10-16T15:41:58;98969.06;;;28.16;41.26
21566;BME280;10943;48.738;9.320;2022-10-16T15:44:29;98968.44;;;27.98;41.57
21566;BME280;10943;48.738;9.320;2022-10-16T15:46:58;98972.00;;;27.82;42.19
21566;BME280;10943;48.738;9.320;2022-10-16T15:49:26;98975.06;;;27.65;42.66
21566;BME280;10943;48.738;9.320;2022-10-16T15:52:00;98977.53;;;27.54;42.35
21566;BME280;10943;48.738;9.320;2022-10-16T15:54:31;98977.88;;;27.40;42.02
21566;BME280;10943;48.738;9.320;2022-10-16T15:56:59;98988.19;;;27.24;42.36
21566;BME280;10943;48.738;9.320;2022-10-16T15:59:27;98977.34;;;26.83;43.97
21566;BME280;10943;48.738;9.320;2022-10-16T16:02:05;98986.81;;;26.66;43.63
21566;BME280;10943;48.738;9.320;2022-10-16T16:04:33;98989.09;;;26.52;44.14
21566;BME280;10943;48.738;9.320;2022-10-16T16:07:11;98990.09;;;26.26;46.02
21566;BME280;10943;48.738;9.320;2022-10-16T16:09:39;98986.56;;;26.29;46.22
21566;BME280;10943;48.738;9.320;2022-10-16T16:12:10;98987.69;;;25.98;47.35
21566;BME280;10943;48.738;9.320;2022-10-16T16:14:41;98980.94;;;25.73;48.84
21566;BME280;10943;48.738;9.320;2022-10-16T16:17:09;98976.19;;;25.47;50.09
21566;BME280;10943;48.738;9.320;2022-10-16T16:19:37;98990.22;;;25.26;50.70
21566;BME280;10943;48.738;9.320;2022-10-16T16:22:05;98985.25;;;25.14;50.78
21566;BME280;10943;48.738;9.320;2022-10-16T16:24:38;98987.22;;;25.05;50.78
21566;BME280;10943;48.738;9.320;2022-10-16T16:27:06;98995.09;;;24.91;51.18
21566;BME280;10943;48.738;9.320;2022-10-16T16:29:35;98996.91;;;24.78;52.70
21566;BME280;10943;48.738;9.320;2022-10-16T16:32:06;98990.75;;;24.67;53.10
21566;BME280;10943;48.738;9.320;2022-10-16T16:34:36;98999.19;;;24.41;54.24
21566;BME280;10943;48.738;9.320;2022-10-16T16:37:04;99003.53;;;24.38;53.72